Skip Navigation Links
NOAA logo - Click to go to the NOAA homepage
NOAA's National Weather Service
Alaska Aviation Weather Unit
  NWS logo - Click to go to the NWS homepage
Left Navbar Graphic     21 AKDT = 05 GMT

   
NOAA is celebrating 200 years of science, service, and stewardship. Visit the NOAA 200th celebration Web site to learn more.
USA.gov is the U.S. Government's official Web portal to all Federal, state and local government Web resources and services.
Facebook
NWS on Facebook

Important Change Regarding the AAWU Web Presence

 

Over the last several months, the AAWU has been working to navigate its webpages to a nationally supported server. Security, as well as other needs, have necessitated the change.  In the process, we have made an effort to enhance the functionality of our website, as well as some of our products. As of June 27, 2017, aawu.arh.noaa.gov will be discontinued. The new AAWU web address is weather.gov/aawu. It is now live and will run in-parallel with the old site until it is discontinued. Please send any feedback or questions regarding the new webpages to nws.ar.aawu.webauthors@noaa.gov.  Thank you for your patience during this time of transition.
AAWU Home :: Display TAF Add Bookmark
TAF CYSM 242338Z 2500/2512 VRB03KT P6SM FEW080
    RMK NXT FCST BY 250600Z=

METAR CYSM 242300Z 23003KT 210V340 15SM FEW080 FEW240 22/M00 A3023 RMK CU1CI1 CI TR SLP246 DENSITY ALT 1300FT= METAR CYSM 250000Z 31003KT 250V360 15SM FEW080 FEW240 22/M00 A3022 RMK CU1CI1 CI TR SLP244 DENSITY ALT 1300FT= METAR CYSM 250100Z VRB03KT 15SM FEW080 FEW240 22/M00 A3021 RMK CU1CI1 CU TR CI TR SLP237 DENSITY ALT 1400FT= METAR CYSM 250200Z VRB04KT 15SM FEW090 22/01 A3021 RMK AC1 AC TR SLP236 DENSITY ALT 1300FT= METAR CYSM 250300Z 02005KT 15SM FEW090 20/04 A3020 RMK AC1 AC TR SLP234 DENSITY ALT 1200FT= METAR CYSM 250400Z 06002KT 15SM FEW100 18/02 A3020 RMK AC1 AC TR SLP233 DENSITY ALT 900FT= METAR CYSM 250500Z 00000KT 15SM FEW240 14/04 A3020 RMK CI1 CI TR SLP235=
 Alaska TAF Map

NOAA's National Weather Service
Alaska Aviation Weather Unit
6930 Sand Lake Road
Anchorage, AK 99502-1845
Disclaimer
Credits
Glossary
Privacy Policy
About Us
Career Opportunities
Contact AAWU Internet Services Site last modified: April, 17th 2012